createdAt,value
2018-12-19T00:00:34.724Z,0.00
2018-12-19T00:01:34.670Z,0.00
2018-12-19T00:02:34.612Z,0.00
2018-12-19T00:03:34.576Z,0.00
2018-12-19T00:04:34.501Z,0.00
2018-12-19T00:05:34.443Z,0.00
2018-12-19T00:06:34.388Z,0.00
2018-12-19T00:07:34.334Z,0.00
2018-12-19T00:08:34.302Z,0.00
2018-12-19T00:09:34.220Z,0.00
2018-12-19T00:10:34.164Z,0.00
2018-12-19T00:11:34.109Z,0.00
2018-12-19T00:12:34.053Z,0.00
2018-12-19T00:13:34.021Z,0.00
2018-12-19T00:14:33.936Z,0.00
2018-12-19T00:15:33.887Z,0.00
2018-12-19T00:16:33.824Z,0.00
2018-12-19T00:17:33.772Z,0.00
2018-12-19T00:18:33.725Z,0.00
2018-12-19T00:19:33.682Z,0.00
2018-12-19T00:20:33.606Z,0.00
2018-12-19T00:21:33.551Z,0.00
2018-12-19T00:22:33.492Z,0.00
2018-12-19T00:23:33.439Z,0.00
2018-12-19T00:24:33.405Z,0.00
2018-12-19T00:25:33.326Z,0.00
2018-12-19T00:26:33.269Z,0.00
2018-12-19T00:27:33.214Z,0.00
2018-12-19T00:28:33.159Z,0.00
2018-12-19T00:29:33.123Z,0.00
2018-12-19T00:30:33.048Z,0.00
2018-12-19T00:31:32.989Z,0.00
2018-12-19T00:32:32.933Z,0.00
2018-12-19T00:33:32.886Z,0.00
2018-12-19T00:34:32.850Z,0.00
2018-12-19T00:35:32.768Z,0.00
2018-12-19T00:36:32.712Z,0.00
2018-12-19T00:37:32.663Z,0.00
2018-12-19T00:38:32.611Z,0.00
2018-12-19T00:39:32.567Z,0.00
2018-12-19T00:40:32.491Z,0.00
2018-12-19T00:41:32.431Z,0.00
2018-12-19T00:42:32.375Z,0.00
2018-12-19T00:43:32.320Z,0.00
2018-12-19T00:44:32.293Z,0.00
2018-12-19T00:45:32.209Z,0.00
2018-12-19T00:46:32.154Z,0.00
2018-12-19T00:47:32.102Z,0.00
2018-12-19T00:48:32.039Z,0.00
2018-12-19T00:49:32.017Z,0.00
2018-12-19T00:50:31.933Z,0.00
2018-12-19T00:51:31.869Z,0.00
2018-12-19T00:52:31.821Z,0.00
2018-12-19T00:53:31.765Z,0.00
2018-12-19T00:54:31.731Z,0.00
2018-12-19T00:55:31.654Z,0.00
2018-12-19T00:56:31.599Z,0.00
2018-12-19T00:57:31.541Z,0.00
2018-12-19T00:58:31.485Z,0.00
2018-12-19T00:59:31.454Z,0.00
2018-12-19T01:00:31.374Z,0.00
2018-12-19T01:01:31.322Z,0.00
2018-12-19T01:02:31.257Z,0.00
2018-12-19T01:03:31.210Z,0.00
2018-12-19T01:04:31.173Z,0.00
2018-12-19T01:05:31.092Z,0.00
2018-12-19T01:06:31.038Z,0.00
2018-12-19T01:07:30.988Z,0.00
2018-12-19T01:08:30.931Z,0.00
2018-12-19T01:09:30.897Z,0.00
2018-12-19T01:10:30.813Z,0.00
2018-12-19T01:11:30.765Z,0.00
2018-12-19T01:12:30.705Z,0.00
2018-12-19T01:13:30.654Z,0.00
2018-12-19T01:14:30.619Z,0.00
2018-12-19T01:15:30.535Z,0.00
2018-12-19T01:16:30.513Z,0.00
2018-12-19T01:17:30.426Z,0.00
2018-12-19T01:18:30.377Z,0.00
2018-12-19T01:19:30.315Z,0.00
2018-12-19T01:20:30.282Z,0.00
2018-12-19T01:21:30.203Z,0.00
2018-12-19T01:22:30.147Z,0.00
2018-12-19T01:23:30.089Z,0.00
2018-12-19T01:24:30.032Z,0.00
2018-12-19T01:25:30.001Z,0.00
2018-12-19T01:26:29.922Z,0.00
2018-12-19T01:27:29.867Z,0.00
2018-12-19T01:28:29.861Z,0.00
2018-12-19T01:29:29.756Z,0.00
2018-12-19T01:30:29.734Z,0.00
2018-12-19T01:31:29.644Z,0.00
2018-12-19T01:32:29.589Z,0.00
2018-12-19T01:33:29.528Z,0.00
2018-12-19T01:34:29.474Z,0.00
2018-12-19T01:35:29.439Z,0.00
2018-12-19T01:36:29.367Z,0.00
2018-12-19T01:37:29.308Z,0.00
2018-12-19T01:38:29.280Z,0.00
2018-12-19T01:39:29.200Z,0.00
2018-12-19T01:40:29.168Z,0.00
2018-12-19T01:41:29.089Z,0.00
2018-12-19T01:42:29.027Z,0.00
2018-12-19T01:43:28.975Z,0.00
2018-12-19T01:44:28.918Z,0.00
2018-12-19T01:45:28.885Z,0.00
2018-12-19T01:46:28.837Z,0.00
2018-12-19T01:47:28.768Z,0.00
2018-12-19T01:48:28.698Z,0.00
2018-12-19T01:49:28.645Z,0.00
2018-12-19T01:50:28.603Z,0.00
2018-12-19T01:51:28.524Z,0.00
2018-12-19T01:52:28.473Z,0.00
2018-12-19T01:53:28.418Z,0.00
2018-12-19T01:54:28.358Z,0.00
2018-12-19T01:55:28.326Z,0.00
2018-12-19T01:56:28.244Z,0.00
2018-12-19T01:57:28.187Z,0.00
2018-12-19T01:58:28.136Z,0.00
2018-12-19T01:59:28.077Z,0.00
2018-12-19T02:00:28.046Z,0.00
2018-12-19T02:01:27.971Z,0.00
2018-12-19T02:02:27.917Z,0.00
2018-12-19T02:03:27.856Z,0.00
2018-12-19T02:04:27.801Z,0.00
2018-12-19T02:05:27.770Z,0.00
2018-12-19T02:06:27.690Z,0.00
2018-12-19T02:07:27.633Z,0.00
2018-12-19T02:08:27.578Z,0.00
2018-12-19T02:09:29.027Z,0.00
2018-12-19T02:10:27.556Z,0.00
2018-12-19T02:11:27.408Z,0.00
2018-12-19T02:12:27.352Z,0.00
2018-12-19T02:13:27.298Z,0.00
2018-12-19T02:14:27.242Z,0.00
2018-12-19T02:15:27.222Z,0.00
2018-12-19T02:16:27.135Z,0.00
2018-12-19T02:17:27.077Z,0.00
2018-12-19T02:18:27.023Z,0.00
2018-12-19T02:19:26.965Z,0.00
2018-12-19T02:20:26.910Z,0.00
2018-12-19T02:21:26.874Z,0.00
2018-12-19T02:22:26.795Z,0.00
2018-12-19T02:23:26.739Z,0.00
2018-12-19T02:24:26.686Z,0.00
2018-12-19T02:25:26.632Z,0.00
2018-12-19T02:26:26.597Z,0.00
2018-12-19T02:27:26.519Z,0.00
2018-12-19T02:28:26.463Z,0.00
2018-12-19T02:29:26.407Z,0.00
2018-12-19T02:30:26.354Z,0.00
2018-12-19T02:31:26.320Z,0.00
2018-12-19T02:32:26.245Z,0.00
2018-12-19T02:33:26.187Z,0.00
2018-12-19T02:34:26.126Z,0.00
2018-12-19T02:35:26.074Z,0.00
2018-12-19T02:36:26.043Z,0.00
2018-12-19T02:37:25.960Z,0.00
2018-12-19T02:38:25.904Z,0.00
2018-12-19T02:39:25.848Z,0.00
2018-12-19T02:40:25.793Z,0.00
2018-12-19T02:41:25.763Z,0.00
2018-12-19T02:42:25.682Z,0.00
2018-12-19T02:43:25.626Z,0.00
2018-12-19T02:44:25.574Z,0.00
2018-12-19T02:45:25.517Z,0.00
2018-12-19T02:46:25.487Z,0.00
2018-12-19T02:47:25.406Z,0.00
2018-12-19T02:48:25.345Z,0.00
2018-12-19T02:49:25.295Z,0.00
2018-12-19T02:50:25.234Z,0.00
2018-12-19T02:51:25.203Z,0.00
2018-12-19T02:52:25.126Z,0.00
2018-12-19T02:53:25.068Z,0.00
2018-12-19T02:54:25.015Z,0.00
2018-12-19T02:55:24.957Z,0.00
2018-12-19T02:56:24.925Z,0.00
2018-12-19T02:57:24.847Z,0.00
2018-12-19T02:58:24.792Z,0.00
2018-12-19T02:59:24.735Z,0.00
2018-12-19T03:00:24.676Z,0.00
2018-12-19T03:01:24.647Z,0.00
2018-12-19T03:02:24.567Z,0.00
2018-12-19T03:03:24.511Z,0.00
2018-12-19T03:04:24.457Z,0.00
2018-12-19T03:05:24.399Z,0.00
2018-12-19T03:06:24.364Z,0.00
2018-12-19T03:07:24.290Z,0.00
2018-12-19T03:08:24.234Z,0.00
2018-12-19T03:09:24.183Z,0.00
2018-12-19T03:10:24.123Z,0.00
2018-12-19T03:11:24.122Z,0.00
2018-12-19T03:12:24.009Z,0.00
2018-12-19T03:13:23.955Z,0.00
2018-12-19T03:14:23.899Z,0.00
2018-12-19T03:15:23.842Z,0.00
2018-12-19T03:16:23.787Z,0.00
2018-12-19T03:17:23.752Z,0.00
2018-12-19T03:18:23.672Z,0.00
2018-12-19T03:19:23.620Z,0.00
2018-12-19T03:20:23.564Z,0.00
2018-12-19T03:21:23.514Z,0.00
2018-12-19T03:22:23.479Z,0.00
2018-12-19T03:23:23.398Z,0.00
2018-12-19T03:24:23.342Z,0.00
2018-12-19T03:25:23.287Z,0.00
2018-12-19T03:26:23.231Z,0.00
2018-12-19T03:27:23.201Z,0.00
2018-12-19T03:28:23.119Z,0.00
2018-12-19T03:29:23.061Z,0.00
2018-12-19T03:30:23.025Z,0.00
2018-12-19T03:31:22.951Z,0.00
2018-12-19T03:32:22.920Z,0.00
2018-12-19T03:33:22.844Z,0.00
2018-12-19T03:34:22.787Z,0.00
2018-12-19T03:35:22.729Z,0.00
2018-12-19T03:36:22.673Z,0.00
2018-12-19T03:37:22.643Z,0.00
2018-12-19T03:38:22.569Z,0.00
2018-12-19T03:39:22.509Z,0.00
2018-12-19T03:40:22.453Z,0.00
2018-12-19T03:41:22.467Z,0.00
2018-12-19T03:42:22.362Z,0.00
2018-12-19T03:43:22.281Z,0.00
2018-12-19T03:44:22.231Z,0.00
2018-12-19T03:45:22.176Z,0.00
2018-12-19T03:46:22.116Z,0.00
2018-12-19T03:47:22.087Z,0.00
2018-12-19T03:48:22.002Z,0.00
2018-12-19T03:49:21.949Z,0.00
2018-12-19T03:50:21.894Z,0.00
2018-12-19T03:51:21.842Z,0.00
2018-12-19T03:52:21.807Z,0.00
2018-12-19T03:53:21.728Z,0.00
2018-12-19T03:54:21.673Z,0.00
2018-12-19T03:55:21.616Z,0.00
2018-12-19T03:56:21.570Z,0.00
2018-12-19T03:57:21.532Z,0.00
2018-12-19T03:58:21.452Z,0.00
2018-12-19T03:59:21.392Z,0.00
2018-12-19T04:00:21.340Z,0.00
2018-12-19T04:01:21.291Z,0.00
2018-12-19T04:02:21.249Z,0.00
2018-12-19T04:03:21.173Z,0.00
2018-12-19T04:04:21.126Z,0.00
2018-12-19T04:05:21.064Z,0.00
2018-12-19T04:06:21.005Z,0.00
2018-12-19T04:07:20.981Z,0.00
2018-12-19T04:08:20.895Z,0.00
2018-12-19T04:09:20.842Z,0.00
2018-12-19T04:10:20.787Z,0.00
2018-12-19T04:11:20.727Z,0.00
2018-12-19T04:12:20.701Z,0.00
2018-12-19T04:13:20.622Z,0.00
2018-12-19T04:14:20.562Z,0.00
2018-12-19T04:15:20.509Z,0.00
2018-12-19T04:16:20.455Z,0.00
2018-12-19T04:17:20.437Z,0.00
2018-12-19T04:18:20.340Z,0.00
2018-12-19T04:19:20.284Z,0.00
2018-12-19T04:20:20.228Z,0.00
2018-12-19T04:21:20.202Z,0.00
2018-12-19T04:22:20.120Z,0.00
2018-12-19T04:23:20.086Z,0.00
2018-12-19T04:24:20.010Z,0.00
2018-12-19T04:25:19.956Z,0.00
2018-12-19T04:26:19.909Z,0.00
2018-12-19T04:27:19.841Z,0.00
2018-12-19T04:28:19.817Z,0.00
2018-12-19T04:29:19.738Z,0.00
2018-12-19T04:30:19.675Z,0.00
2018-12-19T04:31:19.619Z,0.00
2018-12-19T04:32:19.565Z,0.00
2018-12-19T04:33:19.533Z,0.00
2018-12-19T04:34:19.455Z,0.00
2018-12-19T04:35:19.406Z,0.00
2018-12-19T04:36:19.342Z,0.00
2018-12-19T04:37:19.287Z,0.00
2018-12-19T04:38:19.257Z,0.00
2018-12-19T04:39:19.177Z,0.00
2018-12-19T04:40:19.126Z,0.00
2018-12-19T04:41:19.069Z,0.00
2018-12-19T04:42:19.013Z,0.00
2018-12-19T04:43:18.979Z,0.00
2018-12-19T04:44:18.903Z,0.00
2018-12-19T04:45:18.848Z,0.00
2018-12-19T04:46:18.788Z,0.00
2018-12-19T04:47:18.744Z,0.00
2018-12-19T04:48:18.709Z,0.00
2018-12-19T04:49:18.627Z,0.00
2018-12-19T04:50:18.567Z,0.00
2018-12-19T04:51:18.533Z,0.00
2018-12-19T04:52:18.460Z,0.00
2018-12-19T04:53:18.434Z,0.00
2018-12-19T04:54:18.349Z,0.00
2018-12-19T04:55:18.293Z,0.00
2018-12-19T04:56:18.238Z,0.00
2018-12-19T04:57:18.183Z,0.00
2018-12-19T04:58:18.152Z,0.00
2018-12-19T04:59:18.139Z,0.00
2018-12-19T05:00:18.016Z,0.00
2018-12-19T05:01:17.962Z,0.00
2018-12-19T05:02:17.908Z,0.00
2018-12-19T05:03:17.875Z,0.00
2018-12-19T05:04:17.802Z,0.00
2018-12-19T05:05:17.741Z,0.00
2018-12-19T05:06:17.684Z,0.00
2018-12-19T05:07:17.636Z,0.00
2018-12-19T05:08:17.616Z,0.00
2018-12-19T05:09:17.526Z,0.00
2018-12-19T05:10:17.462Z,0.00
2018-12-19T05:11:17.410Z,0.00
2018-12-19T05:12:17.361Z,0.00
2018-12-19T05:13:17.304Z,0.00
2018-12-19T05:14:17.261Z,0.00
2018-12-19T05:15:17.188Z,0.00
2018-12-19T05:16:17.131Z,0.00
2018-12-19T05:17:17.081Z,0.00
2018-12-19T05:18:17.019Z,0.00
2018-12-19T05:19:16.994Z,0.00
2018-12-19T05:20:16.913Z,0.00
2018-12-19T05:21:16.857Z,0.00
2018-12-19T05:22:16.801Z,0.00
2018-12-19T05:23:16.747Z,0.00
2018-12-19T05:24:16.733Z,0.00
2018-12-19T05:25:16.635Z,0.00
2018-12-19T05:26:16.581Z,0.00
2018-12-19T05:27:16.525Z,0.00
2018-12-19T05:28:16.469Z,0.00
2018-12-19T05:29:16.468Z,0.00
2018-12-19T05:30:16.360Z,0.00
2018-12-19T05:31:16.303Z,0.00
2018-12-19T05:32:16.248Z,0.00
2018-12-19T05:33:16.193Z,0.00
2018-12-19T05:34:16.161Z,0.00
2018-12-19T05:35:16.082Z,0.00
2018-12-19T05:36:16.027Z,0.00
2018-12-19T05:37:15.975Z,0.00
2018-12-19T05:38:15.918Z,0.00
2018-12-19T05:39:15.884Z,0.00
2018-12-19T05:40:18.824Z,0.00
2018-12-19T05:41:15.754Z,0.00
2018-12-19T05:42:15.706Z,0.00
2018-12-19T05:43:15.643Z,0.00
2018-12-19T05:44:15.611Z,0.00
2018-12-19T05:45:15.531Z,0.00
2018-12-19T05:46:15.485Z,0.00
2018-12-19T05:47:15.421Z,0.00
2018-12-19T05:48:15.368Z,0.00
2018-12-19T05:49:15.335Z,0.00
2018-12-19T05:50:15.255Z,0.00
2018-12-19T05:51:15.203Z,0.00
2018-12-19T05:52:15.145Z,0.00
2018-12-19T05:53:15.089Z,0.00
2018-12-19T05:54:15.059Z,0.00
2018-12-19T05:55:14.980Z,0.00
2018-12-19T05:56:14.933Z,0.00
2018-12-19T05:57:14.873Z,0.00
2018-12-19T05:58:14.816Z,0.00
2018-12-19T05:59:14.791Z,0.00
2018-12-19T06:00:14.708Z,0.00
2018-12-19T06:01:14.660Z,0.00
2018-12-19T06:02:14.602Z,0.00
2018-12-19T06:03:14.539Z,0.00
2018-12-19T06:04:14.528Z,0.00
2018-12-19T06:05:14.427Z,0.00
2018-12-19T06:06:14.373Z,0.00
2018-12-19T06:07:14.318Z,0.00
2018-12-19T06:08:14.262Z,0.00
2018-12-19T06:09:14.216Z,0.00
2018-12-19T06:10:14.174Z,0.00
2018-12-19T06:11:14.095Z,0.00
2018-12-19T06:12:14.054Z,0.00
2018-12-19T06:13:13.988Z,0.00
2018-12-19T06:14:13.929Z,0.00
2018-12-19T06:15:13.898Z,0.00
2018-12-19T06:16:13.822Z,0.00
2018-12-19T06:17:13.767Z,0.00
2018-12-19T06:18:13.712Z,0.00
2018-12-19T06:19:13.662Z,0.00
2018-12-19T06:20:13.626Z,0.00
2018-12-19T06:21:13.546Z,0.00
2018-12-19T06:22:13.490Z,0.00
2018-12-19T06:23:13.434Z,0.00
2018-12-19T06:24:13.379Z,0.00
2018-12-19T06:25:13.348Z,0.00
2018-12-19T06:26:13.268Z,0.00
2018-12-19T06:27:13.208Z,0.00
2018-12-19T06:28:13.158Z,0.00
2018-12-19T06:29:13.102Z,0.00
2018-12-19T06:30:13.063Z,0.00
2018-12-19T06:31:12.988Z,0.00
2018-12-19T06:32:12.931Z,0.00
2018-12-19T06:33:12.879Z,0.00
2018-12-19T06:34:12.823Z,0.00
2018-12-19T06:35:12.789Z,0.00
2018-12-19T06:36:12.710Z,0.00
2018-12-19T06:37:12.655Z,0.00
2018-12-19T06:38:12.599Z,0.00
2018-12-19T06:39:12.539Z,0.00
2018-12-19T06:40:12.514Z,0.00
2018-12-19T06:41:12.435Z,0.00
2018-12-19T06:42:12.377Z,0.00
2018-12-19T06:43:12.325Z,0.00
2018-12-19T06:44:12.256Z,0.00
2018-12-19T06:45:12.236Z,0.00
2018-12-19T06:46:12.155Z,0.00
2018-12-19T06:47:12.101Z,0.00
2018-12-19T06:48:12.045Z,0.00
2018-12-19T06:49:11.990Z,0.00
2018-12-19T06:50:11.955Z,0.00
2018-12-19T06:51:11.875Z,0.00
2018-12-19T06:52:11.823Z,0.00
2018-12-19T06:53:11.764Z,0.00
2018-12-19T06:54:11.710Z,0.00
2018-12-19T06:55:11.673Z,0.00
2018-12-19T06:56:11.599Z,0.00
2018-12-19T06:57:11.542Z,0.00
2018-12-19T06:58:11.487Z,0.00
2018-12-19T06:59:11.429Z,0.00
2018-12-19T07:00:11.404Z,0.00
2018-12-19T07:01:11.319Z,0.00
2018-12-19T07:02:11.262Z,0.00
2018-12-19T07:03:11.230Z,0.00
2018-12-19T07:04:11.152Z,0.00
2018-12-19T07:05:11.099Z,0.00
2018-12-19T07:06:11.060Z,4.00
2018-12-19T07:07:10.985Z,4.00
2018-12-19T07:08:10.927Z,4.00
2018-12-19T07:09:10.877Z,4.00
2018-12-19T07:10:10.816Z,4.00
2018-12-19T07:11:10.785Z,4.00
2018-12-19T07:12:10.706Z,4.00
2018-12-19T07:13:10.649Z,4.00
2018-12-19T07:14:10.593Z,4.00
2018-12-19T07:15:10.537Z,4.00
2018-12-19T07:16:10.501Z,4.00
2018-12-19T07:17:10.426Z,4.00
2018-12-19T07:18:10.367Z,4.00
2018-12-19T07:19:10.311Z,8.00
2018-12-19T07:20:10.259Z,4.00
2018-12-19T07:21:10.224Z,8.00
2018-12-19T07:22:10.149Z,12.00
2018-12-19T07:23:10.100Z,12.00
2018-12-19T07:24:10.030Z,16.00
2018-12-19T07:25:09.982Z,16.00
2018-12-19T07:26:09.943Z,24.00
2018-12-19T07:27:10.297Z,32.00
2018-12-19T07:28:09.821Z,40.00
2018-12-19T07:29:09.756Z,40.00
2018-12-19T07:30:09.698Z,40.00
2018-12-19T07:31:09.668Z,36.00
2018-12-19T07:32:09.595Z,36.00
2018-12-19T07:33:09.528Z,36.00
2018-12-19T07:34:09.473Z,32.00
2018-12-19T07:35:09.423Z,36.00
2018-12-19T07:36:09.437Z,40.00
2018-12-19T07:37:09.312Z,48.00
2018-12-19T07:38:17.001Z,44.00
2018-12-19T07:39:09.208Z,44.00
2018-12-19T07:40:09.145Z,44.00
2018-12-19T07:41:09.125Z,48.00
2018-12-19T07:42:09.033Z,44.00
2018-12-19T07:43:08.978Z,52.00
2018-12-19T07:44:08.924Z,64.00
2018-12-19T07:45:08.877Z,72.00
2018-12-19T07:46:08.808Z,60.00
2018-12-19T07:47:08.781Z,60.00
2018-12-19T07:48:08.694Z,72.00
2018-12-19T07:49:08.652Z,76.00
2018-12-19T07:50:08.585Z,68.00
2018-12-19T07:51:08.534Z,88.00
2018-12-19T07:52:08.506Z,80.00
2018-12-19T07:53:08.423Z,84.00
2018-12-19T07:54:08.360Z,88.00
2018-12-19T07:55:08.313Z,96.00
2018-12-19T07:56:08.253Z,96.00
2018-12-19T07:57:08.226Z,96.00
2018-12-19T07:58:08.146Z,100.00
2018-12-19T07:59:08.123Z,108.00
2018-12-19T08:00:08.033Z,112.00
2018-12-19T08:01:07.977Z,104.00
2018-12-19T08:02:07.944Z,108.00
2018-12-19T08:03:07.870Z,120.00
2018-12-19T08:04:07.811Z,124.00
2018-12-19T08:05:07.756Z,132.00
2018-12-19T08:06:07.700Z,144.00
2018-12-19T08:07:07.672Z,160.00
2018-12-19T08:08:07.589Z,168.00
2018-12-19T08:09:07.533Z,188.00
2018-12-19T08:10:07.478Z,204.00
2018-12-19T08:11:07.423Z,192.00
2018-12-19T08:12:07.390Z,216.00
2018-12-19T08:13:07.312Z,228.00
2018-12-19T08:14:07.257Z,272.00
2018-12-19T08:15:07.201Z,284.00
2018-12-19T08:16:07.146Z,284.00
2018-12-19T08:17:07.115Z,284.00
2018-12-19T08:18:07.031Z,316.00
2018-12-19T08:19:06.980Z,328.00
2018-12-19T08:20:06.928Z,344.00
2018-12-19T08:21:06.869Z,364.00
2018-12-19T08:22:06.837Z,388.00
2018-12-19T08:23:06.755Z,396.00
2018-12-19T08:24:06.702Z,400.00
2018-12-19T08:25:06.647Z,396.00
2018-12-19T08:26:06.587Z,388.00
2018-12-19T08:27:06.565Z,388.00
2018-12-19T08:28:06.482Z,376.00
2018-12-19T08:29:06.434Z,380.00
2018-12-19T08:30:06.370Z,388.00
2018-12-19T08:31:06.340Z,388.00
2018-12-19T08:32:06.263Z,408.00
2018-12-19T08:33:06.230Z,424.00
2018-12-19T08:34:06.150Z,444.00
2018-12-19T08:35:06.098Z,440.00
2018-12-19T08:36:06.039Z,456.00
2018-12-19T08:37:05.987Z,504.00
2018-12-19T08:38:06.001Z,516.00
2018-12-19T08:39:05.906Z,528.00
2018-12-19T08:40:05.820Z,508.00
2018-12-19T08:41:05.765Z,492.00
2018-12-19T08:42:05.709Z,448.00
2018-12-19T08:43:05.674Z,436.00
2018-12-19T08:44:05.598Z,432.00
2018-12-19T08:45:05.544Z,444.00
2018-12-19T08:46:05.489Z,476.00
2018-12-19T08:47:05.433Z,476.00
2018-12-19T08:48:05.400Z,468.00
2018-12-19T08:49:05.328Z,460.00
2018-12-19T08:50:05.271Z,452.00
2018-12-19T08:51:05.214Z,472.00
2018-12-19T08:52:05.161Z,476.00
2018-12-19T08:53:05.127Z,456.00
2018-12-19T08:54:05.048Z,416.00
2018-12-19T08:55:04.994Z,396.00
2018-12-19T08:56:04.937Z,400.00
2018-12-19T08:57:04.883Z,408.00
2018-12-19T08:58:04.856Z,376.00
2018-12-19T08:59:04.775Z,392.00
2018-12-19T09:00:04.721Z,408.00
2018-12-19T09:01:04.666Z,436.00
2018-12-19T09:02:04.609Z,468.00
2018-12-19T09:03:04.582Z,528.00
2018-12-19T09:04:04.498Z,552.00
2018-12-19T09:05:04.447Z,552.00
2018-12-19T09:06:04.391Z,536.00
2018-12-19T09:07:04.335Z,576.00
2018-12-19T09:08:04.304Z,616.00
2018-12-19T09:09:04.228Z,536.00
2018-12-19T09:10:04.173Z,512.00
2018-12-19T09:11:05.912Z,528.00
2018-12-19T09:12:04.063Z,560.00
2018-12-19T09:13:04.050Z,596.00
2018-12-19T09:14:03.952Z,644.00
2018-12-19T09:15:03.897Z,644.00
2018-12-19T09:16:03.846Z,588.00
2018-12-19T09:17:03.790Z,524.00
2018-12-19T09:18:03.734Z,564.00
2018-12-19T09:19:03.710Z,580.00
2018-12-19T09:20:03.624Z,596.00
2018-12-19T09:21:03.568Z,584.00
2018-12-19T09:22:03.513Z,588.00
2018-12-19T09:23:03.461Z,652.00
2018-12-19T09:24:03.429Z,736.00
2018-12-19T09:25:03.350Z,792.00
2018-12-19T09:26:03.296Z,820.00
2018-12-19T09:27:03.240Z,832.00
2018-12-19T09:28:03.190Z,844.00
2018-12-19T09:29:03.164Z,776.00
2018-12-19T09:30:03.080Z,816.00
2018-12-19T09:31:03.022Z,856.00
2018-12-19T09:32:02.970Z,936.00
2018-12-19T09:33:02.912Z,1024.00
2018-12-19T09:34:02.887Z,1088.00
2018-12-19T09:35:02.806Z,1148.00
2018-12-19T09:36:02.753Z,1176.00
2018-12-19T09:37:02.698Z,1168.00
2018-12-19T09:38:02.642Z,1128.00
2018-12-19T09:39:02.610Z,1052.00
2018-12-19T09:40:02.532Z,1044.00
2018-12-19T09:41:02.479Z,984.00
2018-12-19T09:42:02.435Z,1004.00
2018-12-19T09:43:02.369Z,1004.00
2018-12-19T09:44:02.337Z,1052.00
2018-12-19T09:45:02.266Z,1152.00
2018-12-19T09:46:02.210Z,1148.00
2018-12-19T09:47:02.151Z,1244.00
2018-12-19T09:48:02.100Z,1224.00
2018-12-19T09:49:02.063Z,1172.00
2018-12-19T09:50:01.991Z,1012.00
2018-12-19T09:51:01.932Z,880.00
2018-12-19T09:52:01.879Z,824.00
2018-12-19T09:53:01.826Z,852.00
2018-12-19T09:54:01.794Z,920.00
2018-12-19T09:55:01.721Z,936.00
2018-12-19T09:56:01.660Z,1052.00
2018-12-19T09:57:01.610Z,1056.00
2018-12-19T09:58:01.562Z,1024.00
2018-12-19T09:59:01.522Z,992.00
2018-12-19T10:00:01.449Z,980.00
2018-12-19T10:01:01.927Z,1000.00
2018-12-19T10:02:01.335Z,936.00
2018-12-19T10:03:01.285Z,912.00
2018-12-19T10:04:01.262Z,924.00
2018-12-19T10:05:01.172Z,960.00
2018-12-19T10:06:01.118Z,976.00
2018-12-19T10:07:01.068Z,976.00
2018-12-19T10:08:01.015Z,984.00
2018-12-19T10:09:00.997Z,1048.00
2018-12-19T10:10:00.905Z,1072.00
2018-12-19T10:11:00.853Z,964.00
2018-12-19T10:12:00.803Z,848.00
2018-12-19T10:13:00.742Z,820.00
2018-12-19T10:14:00.686Z,900.00
2018-12-19T10:15:00.659Z,884.00
2018-12-19T10:16:00.581Z,796.00
2018-12-19T10:17:00.529Z,784.00
2018-12-19T10:18:00.473Z,768.00
2018-12-19T10:19:00.419Z,768.00
2018-12-19T10:20:00.392Z,764.00
2018-12-19T10:21:00.315Z,668.00
2018-12-19T10:22:00.255Z,592.00
2018-12-19T10:23:00.201Z,692.00
2018-12-19T10:24:00.151Z,692.00
2018-12-19T10:25:00.118Z,776.00
2018-12-19T10:26:00.110Z,736.00
2018-12-19T10:26:59.987Z,776.00
2018-12-19T10:27:59.931Z,680.00
2018-12-19T10:28:59.880Z,484.00
2018-12-19T10:29:59.848Z,460.00
2018-12-19T10:30:59.781Z,608.00
2018-12-19T10:31:59.745Z,608.00
2018-12-19T10:32:59.662Z,668.00
2018-12-19T10:33:59.607Z,784.00
2018-12-19T10:34:59.581Z,788.00
2018-12-19T10:35:59.500Z,712.00
2018-12-19T10:36:59.446Z,644.00
2018-12-19T10:37:59.393Z,636.00
2018-12-19T10:38:59.338Z,636.00
2018-12-19T10:39:59.307Z,772.00
2018-12-19T10:40:59.232Z,816.00
2018-12-19T10:41:59.175Z,860.00
2018-12-19T10:42:59.120Z,940.00
2018-12-19T10:43:59.071Z,992.00
2018-12-19T10:44:59.039Z,1112.00
2018-12-19T10:45:58.959Z,1152.00
2018-12-19T10:46:58.908Z,1116.00
2018-12-19T10:47:58.851Z,1044.00
2018-12-19T10:48:58.800Z,1024.00
2018-12-19T10:49:58.774Z,892.00
2018-12-19T10:50:58.691Z,812.00
2018-12-19T10:51:58.634Z,760.00
2018-12-19T10:52:58.583Z,800.00
2018-12-19T10:53:58.527Z,756.00
2018-12-19T10:54:58.495Z,788.00
2018-12-19T10:55:58.416Z,808.00
2018-12-19T10:56:58.366Z,736.00
2018-12-19T10:57:58.311Z,716.00
2018-12-19T10:58:58.260Z,700.00
2018-12-19T10:59:58.226Z,732.00
2018-12-19T11:00:58.152Z,892.00
2018-12-19T11:01:58.099Z,1052.00
2018-12-19T11:02:58.047Z,1292.00
2018-12-19T11:03:58.009Z,1300.00
2018-12-19T11:04:57.931Z,1364.00
2018-12-19T11:05:57.908Z,1368.00
2018-12-19T11:06:57.827Z,1088.00
2018-12-19T11:07:57.779Z,1080.00
2018-12-19T11:08:57.715Z,976.00
2018-12-19T11:09:57.666Z,944.00
2018-12-19T11:10:57.633Z,1024.00
2018-12-19T11:11:57.557Z,1176.00
2018-12-19T11:12:57.498Z,1164.00
2018-12-19T11:13:57.447Z,1204.00
2018-12-19T11:14:57.396Z,1220.00
2018-12-19T11:15:57.364Z,1296.00
2018-12-19T11:16:57.288Z,1280.00
2018-12-19T11:17:57.234Z,1368.00
2018-12-19T11:18:57.179Z,1324.00
2018-12-19T11:19:57.130Z,1284.00
2018-12-19T11:20:57.096Z,1324.00
2018-12-19T11:21:57.015Z,1328.00
2018-12-19T11:22:56.967Z,1304.00
2018-12-19T11:23:56.908Z,1420.00
2018-12-19T11:24:56.856Z,1516.00
2018-12-19T11:25:56.826Z,1724.00
2018-12-19T11:26:56.742Z,1888.00
2018-12-19T11:27:56.695Z,1872.00
2018-12-19T11:28:56.641Z,1880.00
2018-12-19T11:29:56.585Z,1648.00
2018-12-19T11:30:56.562Z,1680.00
2018-12-19T11:31:56.478Z,1828.00
2018-12-19T11:32:56.427Z,1772.00
2018-12-19T11:33:56.373Z,1832.00
2018-12-19T11:34:56.317Z,2124.00
2018-12-19T11:35:56.289Z,1832.00
2018-12-19T11:36:56.208Z,1832.00
2018-12-19T11:37:56.152Z,1708.00
2018-12-19T11:38:56.102Z,1580.00
2018-12-19T11:39:56.046Z,1456.00
2018-12-19T11:40:56.035Z,1292.00
2018-12-19T11:41:55.942Z,1628.00
2018-12-19T11:42:55.890Z,1608.00
2018-12-19T11:43:55.831Z,1668.00
2018-12-19T11:44:56.873Z,2076.00
2018-12-19T11:45:55.727Z,1864.00
2018-12-19T11:46:55.698Z,2240.00
2018-12-19T11:47:55.619Z,2232.00
2018-12-19T11:48:55.564Z,2272.00
2018-12-19T11:49:55.515Z,2132.00
2018-12-19T11:50:55.459Z,2124.00
2018-12-19T11:51:55.430Z,1872.00
2018-12-19T11:52:55.355Z,1756.00
2018-12-19T11:53:55.305Z,2224.00
2018-12-19T11:54:55.249Z,2360.00
2018-12-19T11:55:55.196Z,2448.00
2018-12-19T11:56:55.165Z,2896.00
2018-12-19T11:57:55.087Z,2472.00
2018-12-19T11:58:55.030Z,2592.00
2018-12-19T11:59:54.980Z,2572.00
2018-12-19T12:00:54.927Z,2668.00
2018-12-19T12:01:54.898Z,2716.00
2018-12-19T12:02:54.820Z,2856.00
2018-12-19T12:03:54.765Z,2832.00
2018-12-19T12:04:54.715Z,2764.00
2018-12-19T12:05:54.660Z,2876.00
2018-12-19T12:06:54.633Z,2916.00
2018-12-19T12:07:54.565Z,2732.00
2018-12-19T12:08:54.499Z,2680.00
2018-12-19T12:09:54.450Z,2704.00
2018-12-19T12:10:54.397Z,2672.00
2018-12-19T12:11:54.364Z,2780.00
2018-12-19T12:12:54.286Z,2956.00
2018-12-19T12:13:54.238Z,2956.00
2018-12-19T12:14:54.180Z,2832.00
2018-12-19T12:15:54.127Z,2928.00
2018-12-19T12:16:54.104Z,3144.00
2018-12-19T12:17:54.022Z,2960.00
2018-12-19T12:18:53.975Z,2036.00
2018-12-19T12:19:53.918Z,2160.00
2018-12-19T12:20:53.863Z,2772.00
2018-12-19T12:21:53.836Z,2340.00
2018-12-19T12:22:53.756Z,2268.00
2018-12-19T12:23:53.709Z,3404.00
2018-12-19T12:24:53.654Z,2248.00
2018-12-19T12:25:53.597Z,1864.00
2018-12-19T12:26:53.592Z,2132.00
2018-12-19T12:27:53.491Z,2236.00
2018-12-19T12:28:53.439Z,3852.00
2018-12-19T12:29:53.392Z,2836.00
2018-12-19T12:30:53.335Z,2956.00
2018-12-19T12:31:53.278Z,2764.00
2018-12-19T12:32:53.250Z,2560.00
2018-12-19T12:33:53.176Z,1872.00
2018-12-19T12:34:53.126Z,1516.00
2018-12-19T12:35:53.072Z,1704.00
2018-12-19T12:36:53.022Z,1524.00
2018-12-19T12:37:52.986Z,2216.00
2018-12-19T12:38:52.915Z,2592.00
2018-12-19T12:39:52.862Z,2572.00
2018-12-19T12:40:52.808Z,2748.00
2018-12-19T12:41:52.758Z,2308.00
2018-12-19T12:42:52.724Z,2468.00
2018-12-19T12:43:52.649Z,2228.00
2018-12-19T12:44:52.600Z,2376.00
2018-12-19T12:45:52.548Z,2192.00
2018-12-19T12:46:52.491Z,2120.00
2018-12-19T12:47:52.468Z,2232.00
2018-12-19T12:48:52.385Z,2368.00
2018-12-19T12:49:52.334Z,1908.00
2018-12-19T12:50:52.282Z,1544.00
2018-12-19T12:51:52.226Z,1348.00